Time;durP1;ratioP1;P1;durP2;ratioP2;P2;SDS_P1;SDS_P2;PMS_P1;PMS_P2;Temp;Humidity;BMP_temperature;BMP_pressure;BME280_temperature;BME280_humidity;BME280_pressure;Samples;Min_cycle;Max_cycle;Signal;HPM_P1;HPM_P2
2022/03/23 00:01:24;;;;;;;9.60;8.70;;;8.50;60.50;;;;;;10446001;28;20229;-79
2022/03/23 00:06:27;;;;;;;9.73;8.70;;;8.40;64.50;;;;;;10443729;28;20611;-80
2022/03/23 00:11:29;;;;;;;10.30;7.83;;;8.40;65.20;;;;;;10456381;28;20646;-79
2022/03/23 00:16:35;;;;;;;9.50;8.50;;;8.50;63.90;;;;;;10460283;28;20204;-79
2022/03/23 00:21:38;;;;;;;9.10;8.20;;;8.50;64.40;;;;;;10461420;28;20919;-79
2022/03/23 00:26:40;;;;;;;9.77;8.80;;;8.50;64.80;;;;;;10437195;28;20205;-79
2022/03/23 00:31:44;;;;;;;9.90;8.90;;;8.50;65.70;;;;;;10467279;28;20288;-79
2022/03/23 00:36:46;;;;;;;15.30;9.67;;;8.50;65.40;;;;;;10454224;28;20657;-79
2022/03/23 00:41:50;;;;;;;9.30;8.40;;;8.40;65.80;;;;;;10460151;28;20256;-80
2022/03/23 00:46:53;;;;;;;10.27;8.90;;;8.40;67.70;;;;;;10435793;28;20219;-80
2022/03/23 00:51:56;;;;;;;8.83;8.00;;;8.40;66.90;;;;;;10457537;28;20267;-79
2022/03/23 00:56:58;;;;;;;8.50;7.60;;;8.40;66.70;;;;;;10456143;28;20228;-79
2022/03/23 01:02:02;;;;;;;11.70;8.43;;;8.30;68.00;;;;;;10456783;28;20249;-79
2022/03/23 01:07:05;;;;;;;8.80;8.00;;;8.30;65.80;;;;;;10454621;28;20596;-78
2022/03/23 01:12:09;;;;;;;10.60;8.33;;;8.20;66.30;;;;;;10440857;28;20221;-79
2022/03/23 01:17:13;;;;;;;10.30;9.30;;;8.10;65.10;;;;;;10442240;28;20197;-79
2022/03/23 01:22:16;;;;;;;10.13;8.27;;;8.00;66.40;;;;;;10463021;28;20312;-79
2022/03/23 01:27:18;;;;;;;10.27;9.27;;;7.90;65.90;;;;;;10457236;28;20258;-79
2022/03/23 01:32:22;;;;;;;10.67;9.67;;;7.90;65.60;;;;;;10462760;28;20296;-79
2022/03/23 01:37:25;;;;;;;11.20;10.00;;;7.80;67.50;;;;;;10464715;28;20205;-79
2022/03/23 01:42:29;;;;;;;10.50;9.40;;;7.80;65.70;;;;;;10460236;28;20691;-79
2022/03/23 01:47:32;;;;;;;12.77;11.47;;;7.60;68.00;;;;;;10442139;28;20684;-79
2022/03/23 01:52:34;;;;;;;14.10;11.97;;;7.60;67.60;;;;;;10444128;28;20221;-78
2022/03/23 01:57:39;;;;;;;14.93;11.53;;;7.50;70.20;;;;;;10433825;28;20193;-78
2022/03/23 02:02:44;;;;;;;16.60;12.47;;;7.50;70.60;;;;;;10435508;28;20718;-78
2022/03/23 02:07:50;;;;;;;16.30;14.10;;;7.60;69.20;;;;;;10457120;28;20197;-78
2022/03/23 02:12:52;;;;;;;15.70;12.60;;;7.60;70.90;;;;;;10436975;28;20218;-79
2022/03/23 02:17:56;;;;;;;12.97;11.77;;;7.50;71.10;;;;;;10456054;28;20653;-78
2022/03/23 02:23:00;;;;;;;17.43;13.40;;;7.60;72.00;;;;;;10456216;28;20221;-78
2022/03/23 02:28:03;;;;;;;14.17;12.67;;;7.60;74.20;;;;;;10456728;28;20565;-78
2022/03/23 02:33:05;;;;;;;13.80;12.40;;;7.60;73.20;;;;;;10449308;28;20245;-79
2022/03/23 02:38:09;;;;;;;15.10;13.60;;;7.60;74.80;;;;;;10440289;28;20205;-79
2022/03/23 02:43:11;;;;;;;14.20;12.80;;;7.60;74.60;;;;;;10453165;28;20233;-79
2022/03/23 02:48:13;;;;;;;19.00;13.80;;;7.60;73.00;;;;;;10464097;28;20203;-79
2022/03/23 03:04:01;;;;;;;14.93;13.43;;;7.40;72.80;;;;;;10502476;22;20257;-87
2022/03/23 03:09:06;;;;;;;13.87;12.47;;;7.30;72.30;;;;;;10487828;28;20193;-86
2022/03/23 03:14:08;;;;;;;14.00;12.60;;;7.20;74.60;;;;;;10469596;28;20252;-86
2022/03/23 03:19:12;;;;;;;14.80;13.30;;;7.20;75.60;;;;;;10484886;28;20631;-87
2022/03/23 03:24:16;;;;;;;14.60;12.13;;;7.20;74.70;;;;;;10491051;28;20228;-87
2022/03/23 03:29:18;;;;;;;14.20;12.70;;;7.20;72.50;;;;;;10466520;28;20197;-86
2022/03/23 03:34:29;;;;;;;17.63;12.90;;;7.10;73.00;;;;;;10468723;28;20711;-86
2022/03/23 03:39:33;;;;;;;14.13;12.77;;;7.00;74.60;;;;;;10465238;28;20196;-86
2022/03/23 03:44:35;;;;;;;13.30;11.97;;;7.00;75.90;;;;;;10471688;28;20225;-86
2022/03/23 03:49:38;;;;;;;13.47;12.07;;;7.00;74.20;;;;;;10466591;28;20201;-86
2022/03/23 03:54:41;;;;;;;14.37;12.80;;;7.00;73.30;;;;;;10456946;28;20270;-86
2022/03/23 03:59:43;;;;;;;20.80;18.70;;;6.90;74.00;;;;;;10463049;28;20608;-86
2022/03/23 04:04:46;;;;;;;17.13;15.53;;;6.90;74.60;;;;;;10457328;28;20221;-86
2022/03/23 04:09:49;;;;;;;15.27;13.67;;;6.80;75.20;;;;;;10469669;28;20213;-86
2022/03/23 04:14:52;;;;;;;17.63;13.77;;;6.80;76.10;;;;;;10471748;28;20307;-85
2022/03/23 04:19:54;;;;;;;15.57;13.13;;;6.80;75.50;;;;;;10481478;28;20547;-87
2022/03/23 04:24:58;;;;;;;17.20;15.37;;;6.80;74.10;;;;;;10456145;28;20221;-87
2022/03/23 04:30:00;;;;;;;14.53;13.13;;;6.80;75.70;;;;;;10462503;28;20194;-86
2022/03/23 04:35:04;;;;;;;15.40;13.80;;;6.70;75.80;;;;;;10465398;28;20217;-87
2022/03/23 04:40:10;;;;;;;15.47;13.77;;;6.70;74.70;;;;;;10468920;28;20287;-86
2022/03/23 04:45:14;;;;;;;16.67;14.97;;;6.60;75.20;;;;;;10458657;28;20304;-87
2022/03/23 04:50:16;;;;;;;18.20;15.23;;;6.60;75.90;;;;;;10462104;28;20212;-87
2022/03/23 04:55:20;;;;;;;17.70;14.40;;;6.50;76.30;;;;;;10475998;28;20228;-87
2022/03/23 05:00:26;;;;;;;16.43;14.63;;;6.50;75.50;;;;;;10448733;28;20751;-86
2022/03/23 05:05:28;;;;;;;17.00;14.87;;;6.50;75.30;;;;;;10397785;28;20697;-88
2022/03/23 05:10:32;;;;;;;16.27;14.67;;;6.50;75.40;;;;;;10484670;28;20205;-88
2022/03/23 05:15:34;;;;;;;18.00;15.90;;;6.40;76.90;;;;;;10440116;28;20232;-88
2022/03/23 05:20:36;;;;;;;16.37;14.67;;;6.40;77.90;;;;;;10452964;28;20276;-87
2022/03/23 05:25:40;;;;;;;21.77;16.00;;;6.40;75.10;;;;;;10455988;28;20791;-87
2022/03/23 05:30:42;;;;;;;16.80;15.03;;;6.40;76.30;;;;;;10469508;28;20280;-87
2022/03/23 05:35:45;;;;;;;19.90;16.03;;;6.30;76.00;;;;;;10435148;28;20209;-87
2022/03/23 05:40:48;;;;;;;18.23;16.30;;;6.30;74.70;;;;;;10487703;28;20211;-87
2022/03/23 05:45:50;;;;;;;18.43;16.53;;;6.20;75.80;;;;;;10493092;28;20743;-87
2022/03/23 05:50:53;;;;;;;19.27;17.27;;;6.10;79.10;;;;;;10430818;28;20197;-84
2022/03/23 05:55:56;;;;;;;17.73;15.90;;;6.20;79.70;;;;;;10477616;28;20274;-83
2022/03/23 06:00:58;;;;;;;20.87;17.00;;;6.20;78.60;;;;;;10478441;28;20201;-84
2022/03/23 06:06:00;;;;;;;18.50;16.67;;;6.30;78.20;;;;;;10470006;28;20311;-83
2022/03/23 06:11:04;;;;;;;20.67;17.53;;;6.40;78.30;;;;;;10485153;28;20201;-85
2022/03/23 06:16:08;;;;;;;19.20;17.23;;;6.40;78.40;;;;;;10448554;28;20677;-86
2022/03/23 06:21:10;;;;;;;21.20;19.00;;;6.40;79.20;;;;;;10434344;28;20200;-86
2022/03/23 06:26:14;;;;;;;21.77;18.23;;;6.50;80.40;;;;;;10482113;28;20677;-86
2022/03/23 06:31:16;;;;;;;22.13;19.73;;;6.60;79.10;;;;;;10485734;28;20220;-85
2022/03/23 06:36:18;;;;;;;27.90;19.27;;;6.60;79.50;;;;;;10461313;28;20266;-86
2022/03/23 06:41:21;;;;;;;25.53;19.90;;;6.70;80.60;;;;;;10458529;28;20355;-86
2022/03/23 06:46:26;;;;;;;23.43;19.70;;;6.80;81.20;;;;;;10451920;28;20205;-86
2022/03/23 06:51:29;;;;;;;28.60;21.23;;;6.80;80.40;;;;;;10463972;28;20259;-85
2022/03/23 06:56:32;;;;;;;25.17;18.40;;;7.00;81.10;;;;;;10469696;28;20202;-86
2022/03/23 07:01:34;;;;;;;19.80;17.67;;;7.10;80.90;;;;;;10432124;28;20224;-86
2022/03/23 07:06:37;;;;;;;22.20;19.27;;;7.10;80.90;;;;;;10460706;28;20208;-87
2022/03/23 07:11:40;;;;;;;26.30;20.13;;;7.30;80.40;;;;;;10443549;28;20263;-86
2022/03/23 07:16:43;;;;;;;21.13;18.57;;;7.40;80.60;;;;;;10432219;28;20246;-86
2022/03/23 07:21:45;;;;;;;24.83;19.80;;;7.50;79.50;;;;;;10468050;28;20221;-86
2022/03/23 07:26:48;;;;;;;23.77;19.80;;;7.60;78.30;;;;;;10476296;28;20201;-86
2022/03/23 07:31:50;;;;;;;22.47;19.90;;;7.70;78.30;;;;;;10472342;28;20251;-86
2022/03/23 07:36:53;;;;;;;22.73;20.13;;;7.80;78.50;;;;;;10474362;28;20196;-86
2022/03/23 07:41:56;;;;;;;26.80;21.10;;;7.90;78.60;;;;;;10459178;28;20251;-85
2022/03/23 07:47:00;;;;;;;25.27;20.90;;;8.10;79.30;;;;;;10481213;28;20299;-85
2022/03/23 07:52:02;;;;;;;27.03;20.97;;;8.20;78.80;;;;;;10452524;28;20240;-85
2022/03/23 07:57:06;;;;;;;23.47;20.70;;;8.30;78.20;;;;;;10482995;28;20232;-85
2022/03/23 08:02:09;;;;;;;24.33;21.40;;;8.50;78.50;;;;;;10490726;28;20600;-85
2022/03/23 08:07:11;;;;;;;23.30;20.80;;;8.60;77.90;;;;;;10487401;28;20193;-85
2022/03/23 08:12:16;;;;;;;26.40;21.00;;;8.80;78.10;;;;;;10503676;28;20259;-85
2022/03/23 08:17:19;;;;;;;25.63;21.73;;;9.00;79.50;;;;;;10475145;28;20700;-85
2022/03/23 08:22:21;;;;;;;29.13;21.07;;;9.20;79.50;;;;;;10471778;28;20213;-85
2022/03/23 08:27:24;;;;;;;24.97;20.80;;;9.40;80.40;;;;;;10480184;28;20212;-85
2022/03/23 08:32:27;;;;;;;24.53;21.70;;;9.60;80.20;;;;;;10471600;28;20217;-85
2022/03/23 08:37:29;;;;;;;21.47;19.17;;;9.80;78.50;;;;;;10472392;28;20205;-86
2022/03/23 08:42:33;;;;;;;24.80;22.27;;;10.00;78.20;;;;;;10444469;28;20233;-86
2022/03/23 08:47:35;;;;;;;26.00;20.70;;;10.20;76.20;;;;;;10459369;28;20201;-86
2022/03/23 08:52:38;;;;;;;21.57;19.20;;;10.40;76.50;;;;;;10449954;28;20585;-86
2022/03/23 08:57:42;;;;;;;25.87;18.77;;;10.50;75.30;;;;;;10467520;28;20201;-86
2022/03/23 09:02:44;;;;;;;21.10;18.63;;;10.70;74.80;;;;;;10502703;22;20336;-81
2022/03/23 09:07:47;;;;;;;20.67;18.40;;;10.90;74.40;;;;;;10453430;28;20201;-79
2022/03/23 09:12:51;;;;;;;23.67;19.00;;;11.10;73.90;;;;;;10436720;28;20209;-79
2022/03/23 09:17:58;;;;;;;21.23;18.70;;;11.30;76.20;;;;;;10440981;28;20571;-79
2022/03/23 09:23:01;;;;;;;20.60;17.80;;;11.50;73.90;;;;;;10446023;28;20228;-79
2022/03/23 09:28:05;;;;;;;21.90;18.80;;;11.70;71.90;;;;;;10450315;28;20676;-79
2022/03/23 09:33:08;;;;;;;22.50;18.77;;;12.00;71.80;;;;;;10456602;28;20216;-79
2022/03/23 09:38:11;;;;;;;24.70;21.47;;;12.30;72.80;;;;;;10458347;28;20688;-80
2022/03/23 09:43:15;;;;;;;21.20;18.97;;;12.50;71.60;;;;;;10446484;28;20223;-79
2022/03/23 09:48:20;;;;;;;23.27;20.10;;;12.80;69.30;;;;;;10434513;28;20200;-81
2022/03/23 09:53:25;;;;;;;21.67;19.37;;;13.10;70.20;;;;;;10439925;28;20314;-80
2022/03/23 09:58:29;;;;;;;26.80;21.20;;;13.50;70.40;;;;;;10453138;28;20189;-78
2022/03/23 10:04:07;;;;;;;19.80;17.80;;;13.80;69.40;;;;;;10417019;28;20229;-79
2022/03/23 10:09:54;;;;;;;20.63;17.37;;;14.10;67.60;;;;;;10410881;28;20584;-80
2022/03/23 10:15:48;;;;;;;18.67;16.67;;;14.40;67.20;;;;;;10327899;28;20259;-83
2022/03/23 10:20:52;;;;;;;19.60;17.70;;;14.50;64.40;;;;;;10426034;28;20205;-81
2022/03/23 10:25:55;;;;;;;18.07;16.23;;;14.30;64.00;;;;;;10420772;28;20225;-79
2022/03/23 10:30:57;;;;;;;16.50;14.67;;;14.20;64.00;;;;;;10410706;28;20212;-79
2022/03/23 10:36:02;;;;;;;16.30;14.70;;;14.00;65.30;;;;;;10419046;28;20585;-80
2022/03/23 10:41:10;;;;;;;17.47;15.30;;;13.80;65.10;;;;;;10416747;28;20189;-80
2022/03/23 10:46:13;;;;;;;12.50;11.40;;;13.70;64.40;;;;;;10436121;28;20735;-80
2022/03/23 10:51:27;;;;;;;13.53;12.20;;;13.60;61.40;;;;;;10432573;28;20203;-79
2022/03/23 10:56:30;;;;;;;15.27;13.60;;;13.50;63.30;;;;;;10427094;28;20664;-80
2022/03/23 11:02:02;;;;;;;17.53;13.07;;;13.50;60.70;;;;;;10438115;28;20626;-81
2022/03/23 11:07:06;;;;;;;16.37;13.20;;;13.40;60.20;;;;;;10426014;28;20724;-80
2022/03/23 11:17:29;;;;;;;14.20;12.87;;;13.30;56.90;;;;;;10436694;28;20197;-80
2022/03/23 11:22:32;;;;;;;13.90;12.53;;;13.30;55.00;;;;;;10444532;28;20240;-81
2022/03/23 11:27:37;;;;;;;12.43;11.30;;;13.30;59.10;;;;;;10430456;28;20243;-80
2022/03/23 11:32:39;;;;;;;14.10;12.60;;;13.30;60.70;;;;;;10422226;28;20217;-81
2022/03/23 11:37:45;;;;;;;14.57;13.30;;;13.40;51.90;;;;;;10416653;28;20207;-79
2022/03/23 11:42:47;;;;;;;14.93;13.33;;;13.70;53.70;;;;;;10427482;28;20309;-81
2022/03/23 11:47:58;;;;;;;11.40;10.30;;;13.70;55.40;;;;;;10457613;28;20207;-81
2022/03/23 11:53:07;;;;;;;11.37;10.20;;;13.70;52.60;;;;;;10450562;28;20312;-81
2022/03/23 11:58:18;;;;;;;11.00;10.00;;;13.80;54.60;;;;;;10460741;28;20677;-81
2022/03/23 12:03:48;;;;;;;12.80;11.50;;;13.80;55.70;;;;;;10456505;28;20229;-81
2022/03/23 12:08:54;;;;;;;11.63;10.43;;;13.80;51.70;;;;;;10461856;28;20240;-81
2022/03/23 12:13:56;;;;;;;16.10;11.30;;;13.90;51.70;;;;;;10467794;28;20634;-79
2022/03/23 12:19:00;;;;;;;13.87;12.40;;;14.00;50.30;;;;;;10470422;28;20212;-80
2022/03/23 12:24:09;;;;;;;15.13;11.23;;;14.20;48.70;;;;;;10457505;28;20291;-82
2022/03/23 12:29:18;;;;;;;13.00;11.20;;;14.20;51.40;;;;;;10459108;28;20640;-82
2022/03/23 12:34:26;;;;;;;11.63;10.63;;;14.20;53.50;;;;;;10457121;28;20209;-82
2022/03/23 12:39:38;;;;;;;10.73;9.77;;;14.10;56.40;;;;;;10465863;28;20314;-81
2022/03/23 12:44:42;;;;;;;12.13;10.83;;;14.10;53.60;;;;;;10456532;28;20275;-80
2022/03/23 13:00:40;;;;;;;13.40;12.20;;;14.20;50.80;;;;;;10456132;28;20259;-82
2022/03/23 13:06:07;;;;;;;12.10;10.87;;;14.30;51.40;;;;;;10458609;28;20239;-82
2022/03/23 13:11:11;;;;;;;13.77;12.37;;;14.30;53.80;;;;;;10458047;28;20270;-81
2022/03/23 13:16:15;;;;;;;12.90;11.47;;;14.30;51.10;;;;;;10466362;28;20221;-82
2022/03/23 13:21:20;;;;;;;13.27;12.17;;;14.30;50.60;;;;;;10444502;28;20264;-81
2022/03/23 13:26:25;;;;;;;12.60;11.40;;;14.40;54.30;;;;;;10436413;28;20229;-79
2022/03/23 13:31:34;;;;;;;13.43;12.07;;;14.30;51.40;;;;;;10436298;28;20258;-79
2022/03/23 13:36:39;;;;;;;11.13;10.13;;;14.30;54.60;;;;;;10452878;28;20193;-79
2022/03/23 13:47:03;;;;;;;13.00;11.80;;;14.20;52.20;;;;;;10429412;28;20303;-78
2022/03/23 13:52:06;;;;;;;10.60;9.60;;;14.40;52.20;;;;;;10451633;28;20350;-81
2022/03/23 13:57:10;;;;;;;11.93;9.83;;;14.40;51.50;;;;;;10449760;28;20208;-79
2022/03/23 14:02:13;;;;;;;12.47;11.03;;;14.50;54.30;;;;;;10451236;28;20229;-79
2022/03/23 14:07:15;;;;;;;12.20;11.00;;;14.50;52.50;;;;;;10419237;28;20666;-79
2022/03/23 14:12:18;;;;;;;10.93;9.90;;;14.60;54.30;;;;;;10433907;28;20236;-79
2022/03/23 14:17:25;;;;;;;10.47;9.47;;;14.60;51.50;;;;;;10428372;28;20209;-84
2022/03/23 14:22:28;;;;;;;11.80;10.60;;;14.70;54.90;;;;;;10399243;28;20251;-82
2022/03/23 14:27:36;;;;;;;12.40;11.20;;;14.70;51.30;;;;;;10416171;28;20222;-83
2022/03/23 14:32:39;;;;;;;15.60;10.97;;;14.80;52.80;;;;;;10437266;28;20228;-82
2022/03/23 14:37:43;;;;;;;12.53;11.37;;;14.80;52.90;;;;;;10435869;28;20197;-81
2022/03/23 14:42:47;;;;;;;14.50;13.10;;;14.90;52.90;;;;;;10427151;28;20226;-81
2022/03/23 14:47:51;;;;;;;11.93;10.73;;;14.90;49.70;;;;;;10435412;28;20204;-81
2022/03/23 14:52:53;;;;;;;13.53;10.70;;;14.90;51.60;;;;;;10444227;28;20245;-81
2022/03/23 14:57:57;;;;;;;11.00;9.97;;;14.90;52.20;;;;;;10448871;28;20673;-82
2022/03/23 15:02:59;;;;;;;11.57;10.40;;;15.00;50.50;;;;;;10430575;28;20283;-82
2022/03/23 15:13:22;;;;;;;13.73;11.73;;;15.10;49.90;;;;;;10394828;28;20225;-82
2022/03/23 15:18:24;;;;;;;12.70;11.50;;;15.20;52.80;;;;;;10430219;28;20420;-82
2022/03/23 15:23:26;;;;;;;10.67;9.67;;;15.20;53.40;;;;;;10422295;28;20259;-83
2022/03/23 15:28:29;;;;;;;15.07;11.90;;;15.20;54.30;;;;;;10427756;28;20352;-80
2022/03/23 15:33:32;;;;;;;11.43;10.33;;;15.10;52.00;;;;;;10433767;28;20221;-82
2022/03/23 15:38:34;;;;;;;10.63;9.73;;;15.10;51.60;;;;;;10448292;28;20308;-82
2022/03/23 15:43:37;;;;;;;11.77;10.50;;;15.20;52.00;;;;;;10427909;28;20212;-81
2022/03/23 15:48:40;;;;;;;15.67;10.47;;;15.10;54.10;;;;;;10400581;28;20210;-82
2022/03/23 15:53:44;;;;;;;11.83;10.67;;;15.10;53.30;;;;;;10413545;28;20228;-81
2022/03/23 15:58:48;;;;;;;11.00;10.10;;;15.20;49.20;;;;;;10415094;28;20676;-82
2022/03/23 16:03:50;;;;;;;12.30;11.20;;;15.30;48.20;;;;;;10451455;28;20319;-81
2022/03/23 16:08:52;;;;;;;10.90;9.70;;;15.30;49.30;;;;;;10438504;28;20240;-82
2022/03/23 16:13:57;;;;;;;11.27;10.23;;;15.30;50.40;;;;;;10428002;28;20222;-81
2022/03/23 16:18:59;;;;;;;11.67;10.53;;;15.30;50.90;;;;;;10450723;28;20320;-82
2022/03/23 16:24:01;;;;;;;12.40;11.10;;;15.30;52.10;;;;;;10447216;28;20285;-82
2022/03/23 16:29:06;;;;;;;12.67;11.10;;;15.20;52.90;;;;;;10453389;28;20197;-82
2022/03/23 16:34:10;;;;;;;10.93;10.00;;;15.10;53.80;;;;;;10452518;28;20309;-81
2022/03/23 16:39:12;;;;;;;11.10;9.90;;;15.10;54.00;;;;;;10406331;28;20806;-82
2022/03/23 16:44:15;;;;;;;13.43;12.03;;;15.10;53.40;;;;;;10430595;28;20221;-82
2022/03/23 16:49:18;;;;;;;10.90;9.77;;;15.00;53.60;;;;;;10410371;28;20296;-81
2022/03/23 16:54:21;;;;;;;11.23;10.20;;;15.00;52.00;;;;;;10454840;28;20405;-81
2022/03/23 16:59:24;;;;;;;11.73;10.53;;;15.00;56.20;;;;;;10464081;28;20292;-80
2022/03/23 17:15:10;;;;;;;15.90;14.30;;;14.60;59.80;;;;;;10449599;28;20347;-82
2022/03/23 17:20:13;;;;;;;16.67;13.70;;;14.40;62.70;;;;;;10410717;28;20198;-81
2022/03/23 17:25:16;;;;;;;18.63;14.97;;;14.20;63.60;;;;;;10413092;28;20222;-82
2022/03/23 17:30:22;;;;;;;13.27;11.00;;;14.10;65.00;;;;;;10421334;28;20198;-82
2022/03/23 17:35:24;;;;;;;14.37;11.93;;;14.00;56.00;;;;;;10418626;28;20210;-81
2022/03/23 17:40:26;;;;;;;12.63;10.43;;;14.10;54.80;;;;;;10398128;28;20585;-81
2022/03/23 17:45:32;;;;;;;11.53;10.37;;;14.20;55.40;;;;;;10400097;28;20361;-83
2022/03/23 17:50:34;;;;;;;10.70;9.70;;;14.20;54.40;;;;;;10410912;28;20212;-82
2022/03/23 17:55:38;;;;;;;10.63;9.63;;;14.20;54.40;;;;;;10452602;28;20220;-82
2022/03/23 18:00:42;;;;;;;12.00;9.97;;;14.10;54.30;;;;;;10447232;28;20502;-82
2022/03/23 18:05:44;;;;;;;10.57;9.47;;;14.00;54.50;;;;;;10457998;28;20224;-82
2022/03/23 18:10:46;;;;;;;10.83;9.73;;;13.90;54.60;;;;;;10436046;28;20206;-80
2022/03/23 18:15:51;;;;;;;10.07;9.07;;;13.70;54.60;;;;;;10423561;28;20309;-81
2022/03/23 18:20:54;;;;;;;12.67;10.40;;;13.50;54.80;;;;;;10421438;28;20198;-82
2022/03/23 18:25:56;;;;;;;9.87;8.83;;;13.40;54.70;;;;;;10413265;28;20699;-81
2022/03/23 18:31:00;;;;;;;11.60;10.40;;;13.30;54.50;;;;;;10415218;28;20617;-84
2022/03/23 18:36:02;;;;;;;13.87;10.83;;;13.20;54.70;;;;;;10413342;28;20333;-84
2022/03/23 18:41:04;;;;;;;14.17;12.20;;;13.10;55.10;;;;;;10415314;28;20714;-83
2022/03/23 18:46:08;;;;;;;14.00;12.27;;;13.00;55.40;;;;;;10420117;28;20245;-84
2022/03/23 18:51:10;;;;;;;16.03;11.13;;;12.90;55.60;;;;;;10396491;28;20755;-83
2022/03/23 18:56:12;;;;;;;15.20;11.90;;;12.80;55.60;;;;;;10412685;28;20233;-83
2022/03/23 19:01:16;;;;;;;11.60;10.50;;;12.70;55.20;;;;;;10416206;28;20550;-83
2022/03/23 19:06:18;;;;;;;13.83;12.50;;;12.60;55.60;;;;;;10411890;28;20230;-82
2022/03/23 19:11:20;;;;;;;14.97;12.47;;;12.50;55.80;;;;;;10401173;28;20205;-82
2022/03/23 19:16:23;;;;;;;17.27;15.47;;;12.40;56.30;;;;;;10401067;28;20229;-82
2022/03/23 19:21:25;;;;;;;15.03;12.40;;;12.40;56.00;;;;;;10411685;28;20213;-83
2022/03/23 19:26:28;;;;;;;13.60;12.30;;;12.30;56.20;;;;;;10418171;28;20236;-83
2022/03/23 19:31:31;;;;;;;13.80;12.20;;;12.30;56.30;;;;;;10439817;28;20748;-83
2022/03/23 19:36:33;;;;;;;12.10;10.83;;;12.20;56.40;;;;;;10405412;28;20228;-83
2022/03/23 19:41:41;;;;;;;13.53;11.23;;;12.10;56.70;;;;;;10427353;28;20833;-83
2022/03/23 19:46:45;;;;;;;14.23;11.80;;;12.00;56.60;;;;;;10431957;28;20229;-81
2022/03/23 19:51:47;;;;;;;16.43;14.60;;;12.00;56.90;;;;;;10443234;28;20229;-81
2022/03/23 19:56:49;;;;;;;14.60;12.77;;;11.90;57.00;;;;;;10414892;28;20194;-83
2022/03/23 20:01:52;;;;;;;17.57;15.73;;;11.90;57.60;;;;;;10428191;28;20675;-83
2022/03/23 20:06:55;;;;;;;14.20;12.80;;;11.80;57.70;;;;;;10392393;28;20223;-83
2022/03/23 20:11:57;;;;;;;19.20;15.70;;;11.70;57.60;;;;;;10418450;28;20240;-83
2022/03/23 20:17:01;;;;;;;17.03;14.93;;;11.70;58.10;;;;;;10448997;28;20723;-83
2022/03/23 20:22:03;;;;;;;29.40;15.30;;;11.60;58.10;;;;;;10429785;28;20634;-83
2022/03/23 20:27:07;;;;;;;16.30;14.20;;;11.60;58.20;;;;;;10421540;28;20222;-80
2022/03/23 20:32:10;;;;;;;16.60;13.80;;;11.60;58.50;;;;;;10420614;28;20225;-80
2022/03/23 20:37:12;;;;;;;17.30;14.30;;;11.50;59.00;;;;;;10419136;28;20194;-79
2022/03/23 20:42:15;;;;;;;15.20;13.60;;;11.40;58.30;;;;;;10431201;28;20308;-80
2022/03/23 20:47:19;;;;;;;17.63;14.87;;;11.40;58.60;;;;;;10415753;28;20667;-80
2022/03/23 20:52:21;;;;;;;19.20;14.40;;;11.40;59.00;;;;;;10411611;28;20260;-80
2022/03/23 20:57:23;;;;;;;16.00;14.40;;;11.30;59.20;;;;;;10412289;28;20244;-80
2022/03/23 21:02:27;;;;;;;17.70;15.43;;;11.20;59.30;;;;;;10456971;22;20260;-87
2022/03/23 21:07:36;;;;;;;26.43;16.63;;;11.10;60.00;;;;;;10440914;28;20239;-86
2022/03/23 21:12:39;;;;;;;19.33;16.60;;;11.10;60.10;;;;;;10445170;28;20254;-86
2022/03/23 21:17:42;;;;;;;21.97;18.10;;;11.10;60.70;;;;;;10432863;28;20567;-87
2022/03/23 21:22:44;;;;;;;18.40;16.27;;;10.90;61.00;;;;;;10438559;28;20261;-86
2022/03/23 21:27:46;;;;;;;19.93;17.10;;;10.90;61.80;;;;;;10448941;28;20217;-86
2022/03/23 21:32:51;;;;;;;21.20;17.57;;;10.80;61.70;;;;;;10461635;28;20220;-85
2022/03/23 21:37:56;;;;;;;17.77;15.87;;;10.70;62.20;;;;;;10458084;28;20211;-85
2022/03/23 21:42:58;;;;;;;20.47;17.13;;;10.70;62.20;;;;;;10464184;28;20220;-87
2022/03/23 21:48:03;;;;;;;17.07;15.30;;;10.60;64.20;;;;;;10488147;28;20231;-87
2022/03/23 21:53:07;;;;;;;22.40;17.80;;;10.60;65.80;;;;;;10449415;28;20228;-85
2022/03/23 21:58:09;;;;;;;20.03;17.60;;;10.60;65.30;;;;;;10449535;28;20301;-87
2022/03/23 22:03:14;;;;;;;20.10;17.90;;;10.80;64.00;;;;;;10488311;28;20315;-87
2022/03/23 22:08:16;;;;;;;25.10;19.73;;;10.70;64.10;;;;;;10482112;28;20221;-85
2022/03/23 22:13:22;;;;;;;24.47;21.87;;;10.50;64.60;;;;;;10461211;28;20223;-87
2022/03/23 22:18:26;;;;;;;20.37;18.17;;;10.40;65.30;;;;;;10464163;28;20217;-87
2022/03/23 22:23:32;;;;;;;20.23;17.13;;;10.40;65.70;;;;;;10442797;28;20571;-87
2022/03/23 22:28:38;;;;;;;22.63;20.33;;;10.30;66.20;;;;;;10448676;28;20686;-86
2022/03/23 22:33:49;;;;;;;21.67;19.40;;;10.20;67.20;;;;;;10450389;28;20263;-87
2022/03/23 22:38:52;;;;;;;23.83;20.43;;;10.20;68.30;;;;;;10425463;28;20526;-86
2022/03/23 22:43:55;;;;;;;22.30;19.50;;;10.20;67.40;;;;;;10434292;28;20641;-87
2022/03/23 22:48:58;;;;;;;23.40;20.77;;;10.20;67.10;;;;;;10456153;28;20220;-87
2022/03/23 22:54:04;;;;;;;19.77;17.63;;;10.20;68.50;;;;;;10487287;28;20224;-84
2022/03/23 22:59:07;;;;;;;24.43;17.90;;;10.20;68.10;;;;;;10482755;28;20207;-85
2022/03/23 23:04:10;;;;;;;22.37;17.87;;;10.10;68.20;;;;;;10467742;28;20637;-84
2022/03/23 23:09:13;;;;;;;20.70;17.47;;;10.10;69.70;;;;;;10457817;28;20220;-88
2022/03/23 23:14:15;;;;;;;20.83;18.63;;;10.10;67.30;;;;;;10455309;28;20220;-86
2022/03/23 23:19:19;;;;;;;24.57;18.33;;;10.00;67.60;;;;;;10436091;28;20213;-86
2022/03/23 23:24:21;;;;;;;21.90;18.57;;;10.00;68.30;;;;;;10485298;28;20213;-85
2022/03/23 23:29:37;;;;;;;20.77;17.60;;;9.90;71.80;;;;;;10476663;28;20210;-84
2022/03/23 23:34:41;;;;;;;22.53;19.47;;;9.90;72.00;;;;;;10499500;28;20746;-85
2022/03/23 23:39:43;;;;;;;20.23;17.83;;;9.90;72.10;;;;;;10480438;28;20202;-85
2022/03/23 23:44:45;;;;;;;25.67;19.37;;;9.90;69.60;;;;;;10441663;28;20605;-85
2022/03/23 23:49:49;;;;;;;21.57;18.60;;;9.80;69.10;;;;;;10456787;28;20197;-86
2022/03/23 23:54:52;;;;;;;20.30;18.00;;;9.60;69.30;;;;;;10447536;28;20587;-87
2022/03/23 23:59:54;;;;;;;21.20;17.93;;;9.40;72.10;;;;;;10473806;28;20201;-85
